sensor_id;sensor_type;location;lat;lon;timestamp;pressure;altitude;pressure_sealevel;temperature;humidity
71504;BME280;59323;50.874;7.028;2022-10-18T00:01:12;102222.44;;;15.80;100.00
71504;BME280;59323;50.874;7.028;2022-10-18T00:03:40;102226.34;;;15.79;99.75
71504;BME280;59323;50.874;7.028;2022-10-18T00:06:11;102226.75;;;15.81;99.81
71504;BME280;59323;50.874;7.028;2022-10-18T00:08:40;102216.88;;;15.77;100.00
71504;BME280;59323;50.874;7.028;2022-10-18T00:11:08;102227.13;;;15.80;100.00
71504;BME280;59323;50.874;7.028;2022-10-18T00:13:36;102234.25;;;15.84;100.00
71504;BME280;59323;50.874;7.028;2022-10-18T00:16:04;102220.41;;;15.77;99.89
71504;BME280;59323;50.874;7.028;2022-10-18T00:18:33;102222.81;;;15.79;99.81
71504;BME280;59323;50.874;7.028;2022-10-18T00:21:02;102213.78;;;15.78;100.00
71504;BME280;59323;50.874;7.028;2022-10-18T00:23:31;102213.28;;;15.73;100.00
71504;BME280;59323;50.874;7.028;2022-10-18T00:26:06;102221.56;;;15.76;100.00
71504;BME280;59323;50.874;7.028;2022-10-18T00:28:32;102220.00;;;15.75;100.00
71504;BME280;59323;50.874;7.028;2022-10-18T00:31:29;102219.19;;;15.75;100.00
71504;BME280;59323;50.874;7.028;2022-10-18T00:33:58;102213.22;;;15.69;100.00
71504;BME280;59323;50.874;7.028;2022-10-18T00:36:31;102212.06;;;15.70;100.00
71504;BME280;59323;50.874;7.028;2022-10-18T00:38:57;102217.25;;;15.75;100.00
71504;BME280;59323;50.874;7.028;2022-10-18T00:41:26;102208.03;;;15.64;100.00
71504;BME280;59323;50.874;7.028;2022-10-18T00:43:58;102211.56;;;15.65;100.00
71504;BME280;59323;50.874;7.028;2022-10-18T00:46:32;102206.03;;;15.61;100.00
71504;BME280;59323;50.874;7.028;2022-10-18T00:49:00;102198.50;;;15.58;100.00
71504;BME280;59323;50.874;7.028;2022-10-18T00:51:39;102205.94;;;15.58;100.00
71504;BME280;59323;50.874;7.028;2022-10-18T00:54:06;102195.75;;;15.58;100.00
71504;BME280;59323;50.874;7.028;2022-10-18T00:56:32;102191.69;;;15.52;100.00
71504;BME280;59323;50.874;7.028;2022-10-18T00:59:01;102189.75;;;15.52;100.00
71504;BME280;59323;50.874;7.028;2022-10-18T01:01:27;102203.97;;;15.58;100.00
71504;BME280;59323;50.874;7.028;2022-10-18T01:03:55;102200.34;;;15.54;100.00
71504;BME280;59323;50.874;7.028;2022-10-18T01:06:22;102199.28;;;15.59;100.00
71504;BME280;59323;50.874;7.028;2022-10-18T01:14:34;102185.94;;;15.57;100.00
71504;BME280;59323;50.874;7.028;2022-10-18T01:17:12;102190.44;;;15.65;100.00
71504;BME280;59323;50.874;7.028;2022-10-18T01:22:40;102176.56;;;15.58;100.00
71504;BME280;59323;50.874;7.028;2022-10-18T01:28:03;102182.59;;;15.64;100.00
71504;BME280;59323;50.874;7.028;2022-10-18T01:33:41;102191.16;;;15.62;100.00
71504;BME280;59323;50.874;7.028;2022-10-18T01:36:18;102194.59;;;15.59;100.00
71504;BME280;59323;50.874;7.028;2022-10-18T01:38:48;102201.94;;;15.55;100.00
71504;BME280;59323;50.874;7.028;2022-10-18T01:41:18;102193.28;;;15.53;100.00
71504;BME280;59323;50.874;7.028;2022-10-18T01:43:45;102186.22;;;15.52;100.00
71504;BME280;59323;50.874;7.028;2022-10-18T01:46:18;102194.06;;;15.53;100.00
71504;BME280;59323;50.874;7.028;2022-10-18T01:48:45;102193.34;;;15.57;100.00
71504;BME280;59323;50.874;7.028;2022-10-18T01:51:11;102192.56;;;15.56;100.00
71504;BME280;59323;50.874;7.028;2022-10-18T01:53:40;102187.06;;;15.56;100.00
71504;BME280;59323;50.874;7.028;2022-10-18T01:56:25;102190.97;;;15.55;100.00
71504;BME280;59323;50.874;7.028;2022-10-18T01:59:01;102195.59;;;15.51;100.00
71504;BME280;59323;50.874;7.028;2022-10-18T02:07:26;102192.13;;;15.54;100.00
71504;BME280;59323;50.874;7.028;2022-10-18T02:12:33;102182.31;;;15.53;100.00
71504;BME280;59323;50.874;7.028;2022-10-18T02:15:01;102178.78;;;15.52;100.00
71504;BME280;59323;50.874;7.028;2022-10-18T02:17:29;102166.97;;;15.48;100.00
71504;BME280;59323;50.874;7.028;2022-10-18T02:19:55;102167.34;;;15.47;100.00
71504;BME280;59323;50.874;7.028;2022-10-18T02:22:24;102164.97;;;15.45;100.00
71504;BME280;59323;50.874;7.028;2022-10-18T02:24:53;102174.84;;;15.50;100.00
71504;BME280;59323;50.874;7.028;2022-10-18T02:27:23;102173.25;;;15.49;100.00
71504;BME280;59323;50.874;7.028;2022-10-18T02:29:52;102166.13;;;15.44;100.00
71504;BME280;59323;50.874;7.028;2022-10-18T02:32:49;102173.19;;;15.45;100.00
71504;BME280;59323;50.874;7.028;2022-10-18T02:37:49;102180.75;;;15.52;100.00
71504;BME280;59323;50.874;7.028;2022-10-18T02:40:18;102168.13;;;15.47;100.00
71504;BME280;59323;50.874;7.028;2022-10-18T02:42:50;102185.84;;;15.53;100.00
71504;BME280;59323;50.874;7.028;2022-10-18T02:45:16;102196.56;;;15.59;100.00
71504;BME280;59323;50.874;7.028;2022-10-18T02:47:41;102187.81;;;15.53;100.00
71504;BME280;59323;50.874;7.028;2022-10-18T02:50:07;102182.31;;;15.53;100.00
71504;BME280;59323;50.874;7.028;2022-10-18T02:52:35;102189.38;;;15.54;100.00
71504;BME280;59323;50.874;7.028;2022-10-18T02:55:04;102193.34;;;15.57;100.00
71504;BME280;59323;50.874;7.028;2022-10-18T02:57:30;102186.59;;;15.50;100.00
71504;BME280;59323;50.874;7.028;2022-10-18T02:59:56;102186.22;;;15.52;100.00
71504;BME280;59323;50.874;7.028;2022-10-18T03:02:28;102205.22;;;15.61;100.00
71504;BME280;59323;50.874;7.028;2022-10-18T03:05:01;102205.09;;;15.57;100.00
71504;BME280;59323;50.874;7.028;2022-10-18T03:07:26;102193.66;;;15.51;100.00
71504;BME280;59323;50.874;7.028;2022-10-18T03:09:55;102184.63;;;15.51;100.00
71504;BME280;59323;50.874;7.028;2022-10-18T03:12:23;102197.25;;;15.55;100.00
71504;BME280;59323;50.874;7.028;2022-10-18T03:14:54;102197.44;;;15.63;100.00
71504;BME280;59323;50.874;7.028;2022-10-18T03:17:21;102201.25;;;15.58;100.00
71504;BME280;59323;50.874;7.028;2022-10-18T03:19:47;102205.81;;;15.54;100.00
71504;BME280;59323;50.874;7.028;2022-10-18T03:22:12;102207.72;;;15.50;100.00
71504;BME280;59323;50.874;7.028;2022-10-18T03:24:58;102196.69;;;15.46;100.00
71504;BME280;59323;50.874;7.028;2022-10-18T03:27:23;102212.09;;;15.54;100.00
71504;BME280;59323;50.874;7.028;2022-10-18T03:29:49;102209.28;;;15.51;100.00
71504;BME280;59323;50.874;7.028;2022-10-18T03:32:14;102197.03;;;15.45;100.00
71504;BME280;59323;50.874;7.028;2022-10-18T03:34:40;102205.69;;;15.47;100.00
71504;BME280;59323;50.874;7.028;2022-10-18T03:37:11;102204.91;;;15.46;100.00
71504;BME280;59323;50.874;7.028;2022-10-18T03:39:39;102213.19;;;15.50;100.00
71504;BME280;59323;50.874;7.028;2022-10-18T03:42:11;102206.91;;;15.49;100.00
71504;BME280;59323;50.874;7.028;2022-10-18T03:44:38;102200.56;;;15.45;100.00
71504;BME280;59323;50.874;7.028;2022-10-18T03:47:11;102204.19;;;15.49;100.00
71504;BME280;59323;50.874;7.028;2022-10-18T03:49:40;102192.41;;;15.49;100.00
71504;BME280;59323;50.874;7.028;2022-10-18T03:52:07;102188.97;;;15.52;100.00
71504;BME280;59323;50.874;7.028;2022-10-18T03:54:57;102167.28;;;15.43;100.00
71504;BME280;59323;50.874;7.028;2022-10-18T03:57:28;102171.16;;;15.42;100.00
71504;BME280;59323;50.874;7.028;2022-10-18T03:59:53;102183.34;;;15.45;100.00
71504;BME280;59323;50.874;7.028;2022-10-18T04:02:32;102177.72;;;15.38;100.00
71504;BME280;59323;50.874;7.028;2022-10-18T04:05:00;102166.78;;;15.38;100.00
71504;BME280;59323;50.874;7.028;2022-10-18T04:07:26;102185.34;;;15.48;100.00
71504;BME280;59323;50.874;7.028;2022-10-18T04:09:55;102180.53;;;15.41;100.00
71504;BME280;59323;50.874;7.028;2022-10-18T04:12:22;102188.81;;;15.45;100.00
71504;BME280;59323;50.874;7.028;2022-10-18T04:14:48;102190.69;;;15.41;100.00
71504;BME280;59323;50.874;7.028;2022-10-18T04:17:13;102194.31;;;15.45;100.00
71504;BME280;59323;50.874;7.028;2022-10-18T04:19:41;102192.72;;;15.44;100.00
71504;BME280;59323;50.874;7.028;2022-10-18T04:22:07;102197.03;;;15.45;100.00
71504;BME280;59323;50.874;7.028;2022-10-18T04:24:33;102191.13;;;15.43;100.00
71504;BME280;59323;50.874;7.028;2022-10-18T04:26:58;102182.91;;;15.43;100.00
71504;BME280;59323;50.874;7.028;2022-10-18T04:29:32;102198.19;;;15.44;100.00
71504;BME280;59323;50.874;7.028;2022-10-18T04:31:57;102181.69;;;15.40;100.00
71504;BME280;59323;50.874;7.028;2022-10-18T04:34:25;102190.41;;;15.46;100.00
71504;BME280;59323;50.874;7.028;2022-10-18T04:36:58;102185.66;;;15.43;100.00
71504;BME280;59323;50.874;7.028;2022-10-18T04:39:28;102195.03;;;15.42;100.00
71504;BME280;59323;50.874;7.028;2022-10-18T04:41:55;102202.53;;;15.45;100.00
71504;BME280;59323;50.874;7.028;2022-10-18T04:44:21;102190.28;;;15.39;100.00
71504;BME280;59323;50.874;7.028;2022-10-18T04:46:46;102209.09;;;15.40;100.00
71504;BME280;59323;50.874;7.028;2022-10-18T04:49:21;102198.84;;;15.37;100.00
71504;BME280;59323;50.874;7.028;2022-10-18T04:51:49;102214.19;;;15.42;100.00
71504;BME280;59323;50.874;7.028;2022-10-18T04:54:14;102194.88;;;15.35;100.00
71504;BME280;59323;50.874;7.028;2022-10-18T04:56:40;102198.41;;;15.35;100.00
71504;BME280;59323;50.874;7.028;2022-10-18T04:59:05;102202.81;;;15.40;100.00
71504;BME280;59323;50.874;7.028;2022-10-18T05:01:31;102207.22;;;15.44;100.00
71504;BME280;59323;50.874;7.028;2022-10-18T05:03:56;102207.44;;;15.36;100.00
71504;BME280;59323;50.874;7.028;2022-10-18T05:06:22;102206.28;;;15.37;100.00
71504;BME280;59323;50.874;7.028;2022-10-18T05:08:47;102226.38;;;15.44;100.00
71504;BME280;59323;50.874;7.028;2022-10-18T05:11:13;102221.19;;;15.39;100.00
71504;BME280;59323;50.874;7.028;2022-10-18T05:13:38;102212.19;;;15.39;100.00
71504;BME280;59323;50.874;7.028;2022-10-18T05:16:04;102206.28;;;15.37;100.00
71504;BME280;59323;50.874;7.028;2022-10-18T05:18:30;102215.72;;;15.39;100.00
71504;BME280;59323;50.874;7.028;2022-10-18T05:20:59;102203.91;;;15.35;100.00
71504;BME280;59323;50.874;7.028;2022-10-18T05:23:24;102227.09;;;15.41;100.00
71504;BME280;59323;50.874;7.028;2022-10-18T05:25:50;102226.75;;;15.43;100.00
71504;BME280;59323;50.874;7.028;2022-10-18T05:28:15;102215.66;;;15.36;100.00
71504;BME280;59323;50.874;7.028;2022-10-18T05:30:41;102219.63;;;15.38;100.00
71504;BME280;59323;50.874;7.028;2022-10-18T05:33:07;102220.03;;;15.40;100.00
71504;BME280;59323;50.874;7.028;2022-10-18T05:35:35;102220.41;;;15.39;100.00
71504;BME280;59323;50.874;7.028;2022-10-18T05:38:03;102226.69;;;15.39;100.00
71504;BME280;59323;50.874;7.028;2022-10-18T05:40:28;102229.47;;;15.43;100.00
71504;BME280;59323;50.874;7.028;2022-10-18T05:42:54;102221.19;;;15.39;100.00
71504;BME280;59323;50.874;7.028;2022-10-18T05:45:19;102237.72;;;15.43;100.00
71504;BME280;59323;50.874;7.028;2022-10-18T05:47:47;102233.09;;;15.47;100.00
71504;BME280;59323;50.874;7.028;2022-10-18T05:50:15;102233.44;;;15.45;100.00
71504;BME280;59323;50.874;7.028;2022-10-18T05:52:41;102224.66;;;15.36;100.00
71504;BME280;59323;50.874;7.028;2022-10-18T05:55:06;102238.13;;;15.45;100.00
71504;BME280;59323;50.874;7.028;2022-10-18T05:57:32;102231.00;;;15.40;100.00
71504;BME280;59323;50.874;7.028;2022-10-18T06:00:03;102237.63;;;15.39;100.00
71504;BME280;59323;50.874;7.028;2022-10-18T06:02:32;102239.22;;;15.40;100.00
71504;BME280;59323;50.874;7.028;2022-10-18T06:04:57;102247.88;;;15.42;100.00
71504;BME280;59323;50.874;7.028;2022-10-18T06:07:23;102251.13;;;15.48;100.00
71504;BME280;59323;50.874;7.028;2022-10-18T06:09:48;102256.16;;;15.46;100.00
71504;BME280;59323;50.874;7.028;2022-10-18T06:12:13;102249.81;;;15.42;100.00
71504;BME280;59323;50.874;7.028;2022-10-18T06:14:39;102260.50;;;15.47;100.00
71504;BME280;59323;50.874;7.028;2022-10-18T06:17:04;102245.50;;;15.41;100.00
71504;BME280;59323;50.874;7.028;2022-10-18T06:19:30;102246.66;;;15.40;100.00
71504;BME280;59323;50.874;7.028;2022-10-18T06:21:55;102247.50;;;15.44;100.00
71504;BME280;59323;50.874;7.028;2022-10-18T06:24:21;102246.72;;;15.43;100.00
71504;BME280;59323;50.874;7.028;2022-10-18T06:26:46;102249.16;;;15.48;100.00
71504;BME280;59323;50.874;7.028;2022-10-18T06:29:14;102242.38;;;15.42;100.00
71504;BME280;59323;50.874;7.028;2022-10-18T06:31:40;102248.72;;;15.46;100.00
71504;BME280;59323;50.874;7.028;2022-10-18T06:34:25;102245.50;;;15.41;100.00
71504;BME280;59323;50.874;7.028;2022-10-18T06:36:53;102234.53;;;15.41;100.00
71504;BME280;59323;50.874;7.028;2022-10-18T06:39:21;102247.94;;;15.46;100.00
71504;BME280;59323;50.874;7.028;2022-10-18T06:41:50;102252.69;;;15.49;100.00
71504;BME280;59323;50.874;7.028;2022-10-18T06:44:18;102254.22;;;15.46;100.00
71504;BME280;59323;50.874;7.028;2022-10-18T07:04:15;102263.06;;;15.40;100.00
71504;BME280;59323;50.874;7.028;2022-10-18T07:06:44;102261.56;;;15.42;100.00
71504;BME280;59323;50.874;7.028;2022-10-18T07:09:19;102274.53;;;15.45;100.00
71504;BME280;59323;50.874;7.028;2022-10-18T07:12:29;102274.09;;;15.43;100.00
71504;BME280;59323;50.874;7.028;2022-10-18T07:15:03;102276.50;;;15.45;100.00
71504;BME280;59323;50.874;7.028;2022-10-18T07:17:45;102282.75;;;15.45;100.00
71504;BME280;59323;50.874;7.028;2022-10-18T07:20:16;102281.25;;;15.48;100.00
71504;BME280;59323;50.874;7.028;2022-10-18T07:32:19;102297.41;;;15.53;100.00
71504;BME280;59323;50.874;7.028;2022-10-18T07:35:07;102302.44;;;15.51;100.00
71504;BME280;59323;50.874;7.028;2022-10-18T07:37:40;102307.94;;;15.51;100.00
71504;BME280;59323;50.874;7.028;2022-10-18T07:40:16;102324.88;;;15.57;100.00
71504;BME280;59323;50.874;7.028;2022-10-18T07:43:06;102337.56;;;15.61;100.00
71504;BME280;59323;50.874;7.028;2022-10-18T07:45:37;102320.56;;;15.55;100.00
71504;BME280;59323;50.874;7.028;2022-10-18T07:51:19;102330.81;;;15.59;100.00
71504;BME280;59323;50.874;7.028;2022-10-18T07:53:58;102336.63;;;15.57;100.00
71504;BME280;59323;50.874;7.028;2022-10-18T07:56:28;102354.44;;;15.63;100.00
71504;BME280;59323;50.874;7.028;2022-10-18T07:58:59;102338.69;;;15.60;100.00
71504;BME280;59323;50.874;7.028;2022-10-18T08:01:33;102343.03;;;15.61;100.00
71504;BME280;59323;50.874;7.028;2022-10-18T08:03:58;102342.75;;;15.66;100.00
71504;BME280;59323;50.874;7.028;2022-10-18T08:06:40;102335.50;;;15.58;100.00
71504;BME280;59323;50.874;7.028;2022-10-18T08:09:22;102343.72;;;15.58;100.00
71504;BME280;59323;50.874;7.028;2022-10-18T08:11:57;102341.31;;;15.57;100.00
71504;BME280;59323;50.874;7.028;2022-10-18T08:14:36;102347.59;;;15.57;100.00
71504;BME280;59323;50.874;7.028;2022-10-18T08:17:01;102348.75;;;15.56;100.00
71504;BME280;59323;50.874;7.028;2022-10-18T08:19:38;102338.06;;;15.51;100.00
71504;BME280;59323;50.874;7.028;2022-10-18T08:22:04;102357.19;;;15.63;100.00
71504;BME280;59323;50.874;7.028;2022-10-18T08:24:29;102346.81;;;15.57;100.00
71504;BME280;59323;50.874;7.028;2022-10-18T08:27:03;102355.94;;;15.61;100.00
71504;BME280;59323;50.874;7.028;2022-10-18T08:29:40;102349.22;;;15.58;100.00
71504;BME280;59323;50.874;7.028;2022-10-18T08:32:32;102368.56;;;15.65;100.00
71504;BME280;59323;50.874;7.028;2022-10-18T08:35:01;102349.91;;;15.55;100.00
71504;BME280;59323;50.874;7.028;2022-10-18T08:37:26;102353.91;;;15.58;100.00
71504;BME280;59323;50.874;7.028;2022-10-18T08:39:55;102362.13;;;15.58;100.00
71504;BME280;59323;50.874;7.028;2022-10-18T08:43:00;102367.34;;;15.63;100.00
71504;BME280;59323;50.874;7.028;2022-10-18T08:53:54;102378.31;;;15.63;100.00
71504;BME280;59323;50.874;7.028;2022-10-18T09:17:09;102400.41;;;15.89;100.00
71504;BME280;59323;50.874;7.028;2022-10-18T09:20:19;102402.88;;;15.94;100.00
71504;BME280;59323;50.874;7.028;2022-10-18T09:22:57;102406.41;;;15.95;100.00
71504;BME280;59323;50.874;7.028;2022-10-18T09:31:31;102407.63;;;15.97;100.00
71504;BME280;59323;50.874;7.028;2022-10-18T09:37:27;102403.38;;;16.00;100.00
71504;BME280;59323;50.874;7.028;2022-10-18T09:40:14;102397.81;;;15.96;100.00
71504;BME280;59323;50.874;7.028;2022-10-18T09:45:23;102416.00;;;16.04;100.00
71504;BME280;59323;50.874;7.028;2022-10-18T09:48:22;102410.16;;;16.06;100.00
71504;BME280;59323;50.874;7.028;2022-10-18T09:51:03;102412.91;;;16.06;100.00
71504;BME280;59323;50.874;7.028;2022-10-18T09:54:02;102414.56;;;16.10;100.00
71504;BME280;59323;50.874;7.028;2022-10-18T09:56:43;102410.28;;;16.13;100.00
71504;BME280;59323;50.874;7.028;2022-10-18T09:59:34;102417.09;;;16.19;100.00
71504;BME280;59323;50.874;7.028;2022-10-18T10:02:18;102416.72;;;16.21;100.00
71504;BME280;59323;50.874;7.028;2022-10-18T10:04:47;102413.72;;;16.26;100.00
71504;BME280;59323;50.874;7.028;2022-10-18T10:07:23;102421.59;;;16.27;100.00
71504;BME280;59323;50.874;7.028;2022-10-18T10:12:37;102424.75;;;16.29;100.00
71504;BME280;59323;50.874;7.028;2022-10-18T10:15:16;102422.88;;;16.33;100.00
71504;BME280;59323;50.874;7.028;2022-10-18T10:18:01;102433.19;;;16.40;100.00
71504;BME280;59323;50.874;7.028;2022-10-18T10:20:44;102428.88;;;16.39;100.00
71504;BME280;59323;50.874;7.028;2022-10-18T10:23:24;102419.84;;;16.38;100.00
71504;BME280;59323;50.874;7.028;2022-10-18T10:26:02;102422.28;;;16.43;100.00
71504;BME280;59323;50.874;7.028;2022-10-18T10:28:41;102443.66;;;16.54;100.00
71504;BME280;59323;50.874;7.028;2022-10-18T10:31:30;102441.56;;;16.47;100.00
71504;BME280;59323;50.874;7.028;2022-10-18T10:37:40;102448.63;;;16.48;100.00
71504;BME280;59323;50.874;7.028;2022-10-18T10:40:09;102449.78;;;16.47;100.00
71504;BME280;59323;50.874;7.028;2022-10-18T10:42:50;102452.47;;;16.43;100.00
71504;BME280;59323;50.874;7.028;2022-10-18T10:45:19;102438.81;;;16.47;100.00
71504;BME280;59323;50.874;7.028;2022-10-18T10:47:46;102447.34;;;16.42;100.00
71504;BME280;59323;50.874;7.028;2022-10-18T10:50:12;102446.56;;;16.41;100.00
71504;BME280;59323;50.874;7.028;2022-10-18T10:52:52;102438.63;;;16.36;100.00
71504;BME280;59323;50.874;7.028;2022-10-18T10:55:29;102441.06;;;16.41;100.00
71504;BME280;59323;50.874;7.028;2022-10-18T10:57:57;102438.38;;;16.45;100.00
71504;BME280;59323;50.874;7.028;2022-10-18T11:00:42;102455.34;;;16.51;100.00
71504;BME280;59323;50.874;7.028;2022-10-18T11:03:20;102447.91;;;16.51;100.00
71504;BME280;59323;50.874;7.028;2022-10-18T11:05:56;102445.41;;;16.42;100.00
71504;BME280;59323;50.874;7.028;2022-10-18T11:08:27;102450.59;;;16.47;100.00
71504;BME280;59323;50.874;7.028;2022-10-18T11:11:20;102452.19;;;16.48;100.00
71504;BME280;59323;50.874;7.028;2022-10-18T11:14:15;102455.78;;;16.53;100.00
71504;BME280;59323;50.874;7.028;2022-10-18T11:22:33;102450.94;;;16.65;100.00
71504;BME280;59323;50.874;7.028;2022-10-18T11:25:04;102452.75;;;16.77;100.00
71504;BME280;59323;50.874;7.028;2022-10-18T11:27:41;102447.19;;;16.73;100.00
71504;BME280;59323;50.874;7.028;2022-10-18T11:30:31;102441.75;;;16.77;100.00
71504;BME280;59323;50.874;7.028;2022-10-18T11:35:46;102430.41;;;16.78;100.00
71504;BME280;59323;50.874;7.028;2022-10-18T11:42:05;102446.06;;;16.97;100.00
71504;BME280;59323;50.874;7.028;2022-10-18T11:47:11;102427.84;;;16.89;100.00
71504;BME280;59323;50.874;7.028;2022-10-18T11:50:18;102427.63;;;16.98;100.00
71504;BME280;59323;50.874;7.028;2022-10-18T11:55:53;102436.53;;;17.14;100.00
71504;BME280;59323;50.874;7.028;2022-10-18T11:58:50;102424.75;;;17.14;100.00
71504;BME280;59323;50.874;7.028;2022-10-18T12:06:51;102413.09;;;17.20;100.00
71504;BME280;59323;50.874;7.028;2022-10-18T12:15:22;102421.69;;;17.19;100.00
71504;BME280;59323;50.874;7.028;2022-10-18T12:18:17;102420.22;;;17.25;100.00
71504;BME280;59323;50.874;7.028;2022-10-18T12:20:57;102413.66;;;17.33;100.00
71504;BME280;59323;50.874;7.028;2022-10-18T12:26:26;102408.22;;;17.36;100.00
71504;BME280;59323;50.874;7.028;2022-10-18T12:29:31;102406.91;;;17.53;98.49
71504;BME280;59323;50.874;7.028;2022-10-18T12:35:14;102405.88;;;17.61;97.34
71504;BME280;59323;50.874;7.028;2022-10-18T12:41:05;102410.78;;;17.75;96.74
71504;BME280;59323;50.874;7.028;2022-10-18T12:43:50;102397.63;;;17.61;99.09
71504;BME280;59323;50.874;7.028;2022-10-18T12:46:20;102393.16;;;17.53;99.67
71504;BME280;59323;50.874;7.028;2022-10-18T12:49:01;102404.56;;;17.55;99.44
71504;BME280;59323;50.874;7.028;2022-10-18T12:51:54;102408.19;;;17.59;98.22
71504;BME280;59323;50.874;7.028;2022-10-18T12:58:01;102414.66;;;17.70;98.04
71504;BME280;59323;50.874;7.028;2022-10-18T13:01:13;102410.84;;;17.79;98.99
71504;BME280;59323;50.874;7.028;2022-10-18T13:13:21;102402.03;;;17.96;96.60
71504;BME280;59323;50.874;7.028;2022-10-18T13:39:04;102397.19;;;18.53;89.15
71504;BME280;59323;50.874;7.028;2022-10-18T13:47:51;102403.44;;;18.50;85.61
71504;BME280;59323;50.874;7.028;2022-10-18T14:06:17;102406.72;;;18.25;85.03
71504;BME280;59323;50.874;7.028;2022-10-18T14:12:28;102419.66;;;18.21;84.23
71504;BME280;59323;50.874;7.028;2022-10-18T14:15:42;102403.06;;;18.18;83.41
71504;BME280;59323;50.874;7.028;2022-10-18T14:18:39;102412.06;;;18.15;83.25
71504;BME280;59323;50.874;7.028;2022-10-18T14:21:27;102415.94;;;18.10;84.16
71504;BME280;59323;50.874;7.028;2022-10-18T14:24:25;102410.44;;;18.10;83.07
71504;BME280;59323;50.874;7.028;2022-10-18T14:27:33;102423.84;;;18.12;82.91
71504;BME280;59323;50.874;7.028;2022-10-18T14:30:19;102420.56;;;18.02;82.80
71504;BME280;59323;50.874;7.028;2022-10-18T14:32:50;102408.66;;;17.91;84.33
71504;BME280;59323;50.874;7.028;2022-10-18T14:35:38;102416.53;;;17.93;83.24
71504;BME280;59323;50.874;7.028;2022-10-18T14:38:54;102412.59;;;17.94;81.52
71504;BME280;59323;50.874;7.028;2022-10-18T14:41:28;102411.41;;;17.91;83.54
71504;BME280;59323;50.874;7.028;2022-10-18T14:47:15;102418.06;;;17.90;82.87
71504;BME280;59323;50.874;7.028;2022-10-18T14:49:52;102421.56;;;17.87;84.04
71504;BME280;59323;50.874;7.028;2022-10-18T14:52:42;102427.44;;;17.86;83.31
71504;BME280;59323;50.874;7.028;2022-10-18T14:55:16;102419.13;;;17.82;81.05
71504;BME280;59323;50.874;7.028;2022-10-18T14:57:44;102413.25;;;17.84;80.62
71504;BME280;59323;50.874;7.028;2022-10-18T15:00:25;102424.25;;;17.84;82.27
71504;BME280;59323;50.874;7.028;2022-10-18T15:03:04;102414.66;;;17.70;81.88
71504;BME280;59323;50.874;7.028;2022-10-18T15:05:32;102419.03;;;17.75;81.06
71504;BME280;59323;50.874;7.028;2022-10-18T15:07:58;102425.59;;;17.67;82.45
71504;BME280;59323;50.874;7.028;2022-10-18T15:10:32;102423.94;;;17.62;82.88
71504;BME280;59323;50.874;7.028;2022-10-18T15:13:00;102417.19;;;17.56;81.79
71504;BME280;59323;50.874;7.028;2022-10-18T15:15:32;102427.44;;;17.59;81.54
71504;BME280;59323;50.874;7.028;2022-10-18T15:18:19;102426.56;;;17.55;82.03
71504;BME280;59323;50.874;7.028;2022-10-18T15:24:36;102420.22;;;17.51;80.50
71504;BME280;59323;50.874;7.028;2022-10-18T15:27:27;102422.59;;;17.53;78.30
71504;BME280;59323;50.874;7.028;2022-10-18T15:29:54;102417.31;;;17.40;79.28
71504;BME280;59323;50.874;7.028;2022-10-18T15:32:26;102411.59;;;17.26;80.47
71504;BME280;59323;50.874;7.028;2022-10-18T15:34:52;102420.53;;;17.20;82.19
71504;BME280;59323;50.874;7.028;2022-10-18T15:40:16;102431.47;;;17.16;83.89
71504;BME280;59323;50.874;7.028;2022-10-18T15:42:43;102425.84;;;17.09;84.83
71504;BME280;59323;50.874;7.028;2022-10-18T15:45:29;102420.19;;;16.98;84.50
71504;BME280;59323;50.874;7.028;2022-10-18T15:50:58;102431.53;;;16.97;85.02
71504;BME280;59323;50.874;7.028;2022-10-18T15:53:44;102423.50;;;16.88;84.62
71504;BME280;59323;50.874;7.028;2022-10-18T15:56:35;102435.22;;;16.85;86.97
71504;BME280;59323;50.874;7.028;2022-10-18T15:59:03;102416.19;;;16.73;88.92
71504;BME280;59323;50.874;7.028;2022-10-18T16:04:04;102434.38;;;16.62;90.28
71504;BME280;59323;50.874;7.028;2022-10-18T16:06:32;102435.84;;;16.56;90.08
71504;BME280;59323;50.874;7.028;2022-10-18T16:08:59;102437.38;;;16.53;90.21
71504;BME280;59323;50.874;7.028;2022-10-18T16:11:25;102436.44;;;16.45;91.02
71504;BME280;59323;50.874;7.028;2022-10-18T16:13:51;102437.88;;;16.39;90.92
71504;BME280;59323;50.874;7.028;2022-10-18T16:16:22;102440.19;;;16.37;91.55
71504;BME280;59323;50.874;7.028;2022-10-18T16:18:48;102438.91;;;16.31;91.82
71504;BME280;59323;50.874;7.028;2022-10-18T16:21:35;102444.69;;;16.26;91.98
71504;BME280;59323;50.874;7.028;2022-10-18T16:24:01;102440.53;;;16.16;91.87
71504;BME280;59323;50.874;7.028;2022-10-18T16:26:27;102450.66;;;16.12;92.16
71504;BME280;59323;50.874;7.028;2022-10-18T16:28:57;102448.91;;;16.04;92.23
71504;BME280;59323;50.874;7.028;2022-10-18T16:31:24;102456.69;;;16.02;92.41
71504;BME280;59323;50.874;7.028;2022-10-18T16:33:52;102451.06;;;15.95;92.42
71504;BME280;59323;50.874;7.028;2022-10-18T16:36:21;102441.81;;;15.84;92.42
71504;BME280;59323;50.874;7.028;2022-10-18T16:38:46;102441.66;;;15.77;92.57
71504;BME280;59323;50.874;7.028;2022-10-18T16:41:13;102446.63;;;15.71;92.73
71504;BME280;59323;50.874;7.028;2022-10-18T16:43:41;102452.03;;;15.68;92.91
71504;BME280;59323;50.874;7.028;2022-10-18T16:46:09;102453.09;;;15.63;93.16
71504;BME280;59323;50.874;7.028;2022-10-18T16:48:38;102458.81;;;15.58;93.28
71504;BME280;59323;50.874;7.028;2022-10-18T16:51:03;102462.97;;;15.52;93.10
71504;BME280;59323;50.874;7.028;2022-10-18T16:53:29;102456.06;;;15.42;93.31